Time;durP1;ratioP1;P1;durP2;ratioP2;P2;SDS_P1;SDS_P2;PMS_P1;PMS_P2;Temp;Humidity;BMP_temperature;BMP_pressure;BME280_temperature;BME280_humidity;BME280_pressure;Samples;Min_cycle;Max_cycle;Signal;HPM_P1;HPM_P2
2022/03/08 00:01:33;;;;;;;99.65;50.95;;;0.50;99.90;;;;;;5074973;28;20036;-58
2022/03/08 00:03:59;;;;;;;102.40;51.33;;;0.50;99.90;;;;;;5074720;28;20064;-58
2022/03/08 00:06:26;;;;;;;99.88;51.28;;;0.50;99.90;;;;;;5074738;28;20076;-58
2022/03/08 00:08:52;;;;;;;107.85;52.88;;;0.50;99.90;;;;;;5074639;28;20016;-58
2022/03/08 00:11:19;;;;;;;133.00;63.28;;;0.40;99.90;;;;;;5071323;28;20021;-58
2022/03/08 00:13:45;;;;;;;122.30;59.38;;;0.40;99.90;;;;;;5054835;28;20048;-58
2022/03/08 00:16:12;;;;;;;101.25;51.22;;;0.40;99.90;;;;;;5054852;28;20033;-58
2022/03/08 00:18:38;;;;;;;105.47;52.58;;;0.40;99.90;;;;;;5054824;28;20025;-58
2022/03/08 00:21:05;;;;;;;103.47;51.00;;;0.40;99.90;;;;;;5054577;28;20056;-58
2022/03/08 00:23:32;;;;;;;112.75;55.67;;;0.40;99.90;;;;;;5054740;28;20088;-58
2022/03/08 00:26:01;;;;;;;108.90;54.58;;;0.40;99.90;;;;;;5054316;28;20055;-58
2022/03/08 00:28:27;;;;;;;103.07;51.75;;;0.30;99.90;;;;;;5054779;28;20029;-58
2022/03/08 00:30:54;;;;;;;104.22;52.38;;;0.30;99.90;;;;;;5054318;28;20053;-58
2022/03/08 00:33:20;;;;;;;115.70;54.17;;;0.30;99.90;;;;;;5036602;28;20055;-58
2022/03/08 00:35:46;;;;;;;111.22;52.45;;;0.30;99.90;;;;;;5035489;28;20033;-58
2022/03/08 00:38:13;;;;;;;106.97;52.08;;;0.20;99.90;;;;;;5054474;28;20043;-58
2022/03/08 00:40:39;;;;;;;115.72;56.30;;;0.30;99.90;;;;;;5054297;28;20084;-58
2022/03/08 00:43:05;;;;;;;112.53;51.53;;;0.30;99.90;;;;;;5054247;28;20676;-58
2022/03/08 00:45:34;;;;;;;105.10;52.05;;;0.20;99.90;;;;;;5054373;28;20040;-58
2022/03/08 00:48:00;;;;;;;109.05;51.65;;;0.30;99.90;;;;;;5053762;28;20021;-58
2022/03/08 00:50:29;;;;;;;105.60;53.65;;;0.30;99.90;;;;;;5036362;28;20021;-58
2022/03/08 00:52:56;;;;;;;108.55;53.00;;;0.40;99.90;;;;;;5054061;28;20032;-58
2022/03/08 00:55:24;;;;;;;114.47;54.08;;;0.30;99.90;;;;;;5053958;28;20499;-58
2022/03/08 00:57:51;;;;;;;109.45;53.55;;;0.30;99.90;;;;;;5054016;28;20131;-58
2022/03/08 01:00:20;;;;;;;106.65;52.40;;;0.20;99.90;;;;;;5036412;28;20471;-58
2022/03/08 01:02:47;;;;;;;132.65;61.25;;;0.10;99.90;;;;;;5053592;28;20039;-58
2022/03/08 01:05:13;;;;;;;112.97;52.30;;;0.10;99.90;;;;;;5054016;28;20433;-58
2022/03/08 01:07:39;;;;;;;163.63;70.35;;;0.20;99.90;;;;;;5053792;28;20441;-58
2022/03/08 01:10:08;;;;;;;143.55;62.20;;;0.20;99.90;;;;;;5069214;28;20061;-58
2022/03/08 01:12:35;;;;;;;111.28;53.33;;;0.30;99.90;;;;;;5053604;28;20045;-58
2022/03/08 01:15:05;;;;;;;130.95;56.30;;;0.20;99.90;;;;;;5053790;28;20072;-58
2022/03/08 01:17:32;;;;;;;110.43;50.53;;;0.20;99.90;;;;;;5053861;28;20067;-58
2022/03/08 01:19:59;;;;;;;147.48;64.30;;;0.20;99.90;;;;;;5035868;28;20029;-58
2022/03/08 01:22:25;;;;;;;129.68;56.65;;;0.20;99.90;;;;;;5053633;28;20108;-58
2022/03/08 01:24:53;;;;;;;114.30;53.45;;;0.20;99.90;;;;;;5053353;28;20116;-58
2022/03/08 01:27:19;;;;;;;131.45;57.80;;;0.30;99.90;;;;;;5035825;28;20029;-58
2022/03/08 01:29:45;;;;;;;123.10;57.70;;;0.30;99.90;;;;;;5053450;28;20051;-58
2022/03/08 01:32:11;;;;;;;110.10;52.85;;;0.20;99.90;;;;;;5053691;28;20033;-58
2022/03/08 01:34:37;;;;;;;168.95;70.57;;;0.20;99.90;;;;;;5035845;28;20115;-58
2022/03/08 01:37:05;;;;;;;149.15;63.65;;;0.20;99.90;;;;;;5053585;28;20033;-58
2022/03/08 01:39:31;;;;;;;140.57;60.50;;;0.10;99.90;;;;;;5036069;28;20079;-58
2022/03/08 01:41:57;;;;;;;139.05;60.00;;;0.10;99.90;;;;;;5035487;28;20040;-58
2022/03/08 01:44:26;;;;;;;147.48;61.22;;;0.10;99.90;;;;;;5053594;28;20075;-58
2022/03/08 01:46:52;;;;;;;151.65;65.55;;;0.20;99.90;;;;;;5054989;28;20060;-58
2022/03/08 01:49:18;;;;;;;154.80;67.82;;;0.10;99.90;;;;;;5039694;28;20119;-58
2022/03/08 01:51:44;;;;;;;94.25;46.25;;;0.10;99.90;;;;;;5039600;28;20090;-58
2022/03/08 01:54:10;;;;;;;94.20;46.63;;;0.20;99.90;;;;;;5057491;28;20032;-58
2022/03/08 01:56:37;;;;;;;86.13;45.08;;;0.10;99.90;;;;;;5057547;28;20090;-58
2022/03/08 01:59:04;;;;;;;92.88;47.10;;;0.20;99.90;;;;;;5057331;28;20059;-58
2022/03/08 02:01:30;;;;;;;86.47;43.47;;;0.20;99.90;;;;;;5057612;28;20059;-58
2022/03/08 02:03:55;;;;;;;76.57;38.85;;;0.30;99.90;;;;;;5057123;28;20116;-58
2022/03/08 02:06:21;;;;;;;77.72;40.33;;;0.20;99.90;;;;;;5057235;28;20113;-58
2022/03/08 02:08:47;;;;;;;86.90;43.85;;;0.10;99.90;;;;;;5057224;28;20052;-58
2022/03/08 02:11:15;;;;;;;72.68;38.30;;;0.10;99.90;;;;;;5057177;28;20033;-58
2022/03/08 02:13:41;;;;;;;74.55;39.47;;;0.10;99.90;;;;;;5057113;28;20437;-58
2022/03/08 02:16:07;;;;;;;64.60;36.92;;;0.10;99.90;;;;;;5056981;28;20056;-58
2022/03/08 02:18:33;;;;;;;75.80;39.83;;;0.10;99.90;;;;;;5057094;28;20040;-58
2022/03/08 02:21:08;;;;;;;60.05;34.75;;;0.20;99.90;;;;;;5057098;28;20033;-58
2022/03/08 02:23:34;;;;;;;71.88;36.70;;;0.20;99.90;;;;;;5057008;28;20045;-58
2022/03/08 02:26:01;;;;;;;66.05;36.15;;;0.20;99.90;;;;;;5056799;28;20044;-58
2022/03/08 02:28:29;;;;;;;65.53;36.20;;;0.20;99.90;;;;;;5056961;28;20040;-58
2022/03/08 02:30:56;;;;;;;69.68;38.53;;;0.20;99.90;;;;;;5056267;28;20052;-58
2022/03/08 02:33:22;;;;;;;61.97;34.75;;;0.10;99.90;;;;;;5057040;28;20049;-58
2022/03/08 02:35:48;;;;;;;60.88;33.42;;;0.10;99.90;;;;;;5056607;28;20106;-58
2022/03/08 02:38:14;;;;;;;66.43;36.20;;;0.20;99.90;;;;;;5056694;28;20478;-58
2022/03/08 02:40:43;;;;;;;77.20;40.58;;;0.20;99.90;;;;;;5056544;28;20043;-58
2022/03/08 02:43:11;;;;;;;62.15;35.30;;;0.20;99.90;;;;;;5056424;28;20115;-58
2022/03/08 02:45:37;;;;;;;59.95;34.53;;;0.30;99.90;;;;;;5056290;28;20028;-58
2022/03/08 02:48:04;;;;;;;60.63;33.22;;;0.20;99.90;;;;;;5056327;28;20040;-58
2022/03/08 02:50:30;;;;;;;60.20;34.78;;;0.20;99.90;;;;;;5056568;28;20028;-58
2022/03/08 02:52:58;;;;;;;61.80;34.70;;;0.10;99.90;;;;;;5056236;28;20056;-58
2022/03/08 02:55:27;;;;;;;63.13;35.35;;;0.10;99.90;;;;;;5056304;28;20071;-58
2022/03/08 02:57:54;;;;;;;61.72;35.08;;;0.10;99.90;;;;;;5055171;28;20482;-58
2022/03/08 03:00:22;;;;;;;60.60;33.78;;;0.20;99.90;;;;;;5056238;28;20025;-58
2022/03/08 03:02:49;;;;;;;60.08;33.00;;;0.00;99.90;;;;;;5056080;28;20498;-58
2022/03/08 03:05:15;;;;;;;60.72;35.60;;;0.10;99.90;;;;;;5056167;28;20029;-58
2022/03/08 03:07:42;;;;;;;68.15;36.33;;;0.00;99.90;;;;;;5055890;28;20434;-58
2022/03/08 03:10:11;;;;;;;64.97;34.28;;;-0.10;99.90;;;;;;5055922;28;20538;-58
2022/03/08 03:12:37;;;;;;;63.55;35.55;;;0.00;99.90;;;;;;5055841;28;20598;-58
2022/03/08 03:15:05;;;;;;;71.43;37.10;;;0.00;99.90;;;;;;5055800;28;20036;-58
2022/03/08 03:17:31;;;;;;;66.82;36.47;;;-0.10;99.90;;;;;;5055984;28;20390;-58
2022/03/08 03:19:57;;;;;;;68.32;36.30;;;-0.10;99.90;;;;;;5055579;28;20025;-58
2022/03/08 03:22:23;;;;;;;62.97;35.05;;;-0.10;99.90;;;;;;5056346;28;20456;-58
2022/03/08 03:24:49;;;;;;;69.05;36.38;;;-0.10;99.90;;;;;;5055515;28;20025;-58
2022/03/08 03:27:15;;;;;;;104.95;50.28;;;-0.10;99.90;;;;;;5055889;28;20557;-58
2022/03/08 03:29:41;;;;;;;174.60;71.10;;;-0.10;99.90;;;;;;5065135;28;20063;-58
2022/03/08 03:32:07;;;;;;;116.10;51.13;;;-0.10;99.90;;;;;;5075256;28;20036;-58
2022/03/08 03:34:33;;;;;;;62.20;32.97;;;-0.20;99.90;;;;;;5075678;28;20174;-58
2022/03/08 03:36:59;;;;;;;63.35;33.80;;;-0.20;99.90;;;;;;5075361;28;20055;-58
2022/03/08 03:39:25;;;;;;;55.50;32.38;;;-0.20;99.90;;;;;;5075552;28;20556;-58
2022/03/08 03:41:51;;;;;;;54.58;31.77;;;-0.20;99.90;;;;;;5075198;28;20103;-58
2022/03/08 03:44:17;;;;;;;59.38;33.17;;;-0.10;99.90;;;;;;5075522;28;20116;-58
2022/03/08 03:46:43;;;;;;;53.47;31.75;;;-0.30;99.90;;;;;;5075217;28;20052;-58
2022/03/08 03:49:09;;;;;;;57.88;33.20;;;-0.30;99.90;;;;;;5075256;28;20025;-58
2022/03/08 03:51:35;;;;;;;57.97;34.35;;;-0.30;99.90;;;;;;5075369;28;20029;-58
2022/03/08 03:54:01;;;;;;;59.35;32.65;;;-0.30;99.90;;;;;;5074980;28;20032;-58
2022/03/08 03:56:27;;;;;;;60.30;32.22;;;-0.40;99.90;;;;;;5074935;28;20040;-58
2022/03/08 03:58:53;;;;;;;58.47;32.35;;;-0.40;99.90;;;;;;5074993;28;20036;-58
2022/03/08 04:01:19;;;;;;;58.08;33.33;;;-0.40;99.90;;;;;;5075013;28;20028;-58
2022/03/08 04:03:45;;;;;;;56.60;31.48;;;-0.40;99.90;;;;;;5074841;28;20089;-58
2022/03/08 04:06:11;;;;;;;58.65;32.92;;;-0.30;99.90;;;;;;5074701;28;20063;-58
2022/03/08 04:08:37;;;;;;;58.60;33.22;;;-0.20;99.90;;;;;;5074970;28;20024;-58
2022/03/08 04:11:03;;;;;;;59.40;33.38;;;-0.20;99.90;;;;;;5074265;28;20044;-58
2022/03/08 04:13:29;;;;;;;62.50;33.55;;;-0.30;99.90;;;;;;5074829;28;20020;-58
2022/03/08 04:15:55;;;;;;;80.00;37.05;;;-0.30;99.90;;;;;;5074685;28;20033;-58
2022/03/08 04:18:21;;;;;;;83.05;39.90;;;-0.30;99.90;;;;;;5074824;28;20036;-58
2022/03/08 04:20:47;;;;;;;76.90;36.92;;;-0.30;99.90;;;;;;5074452;28;20345;-58
2022/03/08 04:23:13;;;;;;;65.05;34.28;;;-0.30;99.90;;;;;;5074633;28;20466;-58
2022/03/08 04:25:39;;;;;;;64.30;34.15;;;-0.30;99.90;;;;;;5074457;28;20463;-58
2022/03/08 04:28:06;;;;;;;62.28;35.00;;;-0.30;99.90;;;;;;5074455;28;20032;-58
2022/03/08 04:30:32;;;;;;;63.75;35.13;;;-0.30;99.90;;;;;;5074411;28;20044;-58
2022/03/08 04:32:58;;;;;;;67.55;35.58;;;-0.30;99.90;;;;;;5074180;28;20077;-58
2022/03/08 04:35:25;;;;;;;65.25;35.83;;;-0.30;99.90;;;;;;5074542;28;20494;-58
2022/03/08 04:37:51;;;;;;;60.53;35.22;;;-0.30;99.90;;;;;;5074295;28;20485;-58
2022/03/08 04:40:17;;;;;;;70.85;37.17;;;-0.30;99.90;;;;;;5074390;28;20078;-58
2022/03/08 04:42:44;;;;;;;63.00;34.67;;;-0.20;99.90;;;;;;5074123;28;20028;-58
2022/03/08 04:45:11;;;;;;;75.75;37.08;;;-0.20;99.90;;;;;;5074301;28;20032;-58
2022/03/08 04:47:38;;;;;;;72.00;39.67;;;-0.30;99.90;;;;;;5074148;28;20433;-58
2022/03/08 04:50:09;;;;;;;75.25;38.58;;;-0.20;99.90;;;;;;5073994;28;20028;-58
2022/03/08 04:52:38;;;;;;;72.63;39.83;;;-0.30;99.90;;;;;;5074173;28;20058;-58
2022/03/08 04:55:04;;;;;;;82.70;42.58;;;-0.30;99.90;;;;;;5074063;28;20032;-58
2022/03/08 04:57:30;;;;;;;71.60;40.05;;;-0.40;99.90;;;;;;5074133;28;20478;-58
2022/03/08 04:59:56;;;;;;;75.65;41.08;;;-0.40;99.90;;;;;;5073885;28;20024;-58
2022/03/08 05:02:25;;;;;;;79.65;42.05;;;-0.40;99.90;;;;;;5056158;28;20107;-58
2022/03/08 05:04:51;;;;;;;69.93;39.55;;;-0.40;99.90;;;;;;5073781;28;20031;-58
2022/03/08 05:07:18;;;;;;;78.70;44.70;;;-0.30;99.90;;;;;;5074025;28;20107;-58
2022/03/08 05:09:43;;;;;;;82.80;43.95;;;-0.30;99.90;;;;;;5074119;28;20490;-58
2022/03/08 05:12:10;;;;;;;80.95;40.72;;;-0.20;99.90;;;;;;5073937;28;20119;-58
2022/03/08 05:14:36;;;;;;;80.03;43.33;;;-0.30;99.90;;;;;;5074116;28;20028;-58
2022/03/08 05:17:03;;;;;;;81.90;41.38;;;-0.30;99.90;;;;;;5073631;28;20456;-58
2022/03/08 05:19:29;;;;;;;92.85;46.08;;;-0.30;99.90;;;;;;5073806;28;20398;-58
2022/03/08 05:21:55;;;;;;;88.85;44.65;;;-0.40;99.90;;;;;;5072925;28;20112;-58
2022/03/08 05:24:20;;;;;;;90.72;47.40;;;-0.40;99.90;;;;;;5073934;28;20052;-58
2022/03/08 05:26:46;;;;;;;107.18;42.92;;;-0.40;99.90;;;;;;5073685;28;20036;-58
2022/03/08 05:29:13;;;;;;;100.03;43.10;;;-0.30;99.90;;;;;;5073547;28;20483;-58
2022/03/08 05:31:39;;;;;;;101.00;43.90;;;-0.30;99.90;;;;;;5073488;28;20020;-58
2022/03/08 05:34:05;;;;;;;100.28;46.15;;;-0.30;99.90;;;;;;5073729;28;20111;-58
2022/03/08 05:36:31;;;;;;;103.20;45.50;;;-0.20;99.90;;;;;;5073656;28;20059;-58
2022/03/08 05:38:57;;;;;;;97.43;43.22;;;-0.20;99.90;;;;;;5073637;28;20120;-58
2022/03/08 05:41:23;;;;;;;91.15;45.05;;;-0.20;99.90;;;;;;5073975;28;20112;-58
2022/03/08 05:43:49;;;;;;;94.38;42.72;;;-0.20;99.90;;;;;;5073283;28;20062;-58
2022/03/08 05:46:15;;;;;;;94.32;41.80;;;-0.10;99.90;;;;;;5073632;28;20033;-58
2022/03/08 05:48:40;;;;;;;90.43;46.50;;;-0.20;99.90;;;;;;5073572;28;20071;-58
2022/03/08 05:51:06;;;;;;;95.15;47.22;;;-0.10;99.90;;;;;;5073402;28;20032;-58
2022/03/08 05:53:32;;;;;;;93.90;47.03;;;-0.20;99.90;;;;;;5073596;28;20029;-58
2022/03/08 05:55:58;;;;;;;97.35;46.78;;;-0.10;99.90;;;;;;5073517;28;20136;-58
2022/03/08 05:58:24;;;;;;;103.10;51.20;;;-0.10;99.90;;;;;;5073473;28;20040;-58
2022/03/08 06:00:50;;;;;;;125.55;59.30;;;-0.10;99.90;;;;;;5073321;28;20036;-58
2022/03/08 06:03:17;;;;;;;122.97;59.45;;;0.00;99.90;;;;;;5073534;28;20029;-58
2022/03/08 06:05:43;;;;;;;135.95;60.03;;;0.00;99.90;;;;;;5073041;28;20077;-58
2022/03/08 06:08:09;;;;;;;145.65;66.13;;;0.00;99.90;;;;;;5073270;28;20482;-58
2022/03/08 06:10:36;;;;;;;120.43;55.42;;;0.00;99.90;;;;;;5073367;28;20021;-58
2022/03/08 06:13:02;;;;;;;119.57;54.80;;;0.10;99.90;;;;;;5073127;28;20507;-58
2022/03/08 06:15:28;;;;;;;104.38;50.78;;;0.10;99.90;;;;;;5069655;28;20115;-58
2022/03/08 06:17:54;;;;;;;109.40;55.15;;;0.10;99.90;;;;;;5062241;28;20115;-58
2022/03/08 06:20:20;;;;;;;107.88;53.22;;;0.10;99.90;;;;;;5064722;28;20035;-58
2022/03/08 06:22:46;;;;;;;113.30;55.92;;;0.10;99.90;;;;;;5060121;28;20072;-58
2022/03/08 06:25:12;;;;;;;149.90;64.32;;;0.00;99.90;;;;;;5061735;28;20396;-58
2022/03/08 06:27:38;;;;;;;131.32;58.53;;;0.10;99.90;;;;;;5058604;28;20029;-58
2022/03/08 06:30:06;;;;;;;131.40;59.35;;;0.20;99.90;;;;;;5053126;28;20049;-58
2022/03/08 06:32:32;;;;;;;128.23;59.03;;;0.30;99.90;;;;;;5062782;28;20025;-58
2022/03/08 06:34:57;;;;;;;137.15;57.33;;;0.20;99.90;;;;;;5076407;28;20104;-58
2022/03/08 06:37:23;;;;;;;131.52;60.45;;;0.30;99.90;;;;;;5069380;28;20173;-58
2022/03/08 06:39:49;;;;;;;137.88;61.85;;;0.30;99.90;;;;;;5059409;28;20025;-59
2022/03/08 06:42:16;;;;;;;127.47;56.08;;;0.40;99.90;;;;;;5058042;28;20315;-59
2022/03/08 06:44:46;;;;;;;138.65;59.13;;;0.40;99.90;;;;;;5069585;28;20526;-59
2022/03/08 06:47:12;;;;;;;124.97;57.15;;;0.40;99.90;;;;;;5065235;28;20028;-58
2022/03/08 06:49:40;;;;;;;136.85;62.97;;;0.40;99.90;;;;;;5058708;28;20021;-58
2022/03/08 06:52:09;;;;;;;131.88;59.55;;;0.30;99.90;;;;;;5056606;28;20020;-58
2022/03/08 06:54:35;;;;;;;126.25;56.90;;;0.50;99.90;;;;;;5058252;28;20071;-58
2022/03/08 06:57:02;;;;;;;116.03;55.15;;;0.50;99.90;;;;;;5059075;28;20147;-59
2022/03/08 06:59:28;;;;;;;133.98;57.65;;;0.50;99.90;;;;;;5065916;28;20099;-57
2022/03/08 07:01:56;;;;;;;130.80;60.05;;;0.50;99.90;;;;;;5074624;28;20029;-58
2022/03/08 07:04:23;;;;;;;145.57;62.00;;;0.60;99.90;;;;;;5076134;28;20470;-58
2022/03/08 07:06:49;;;;;;;154.93;64.38;;;0.60;99.90;;;;;;5075101;28;20086;-58
2022/03/08 07:09:15;;;;;;;141.43;64.32;;;0.70;99.90;;;;;;5070056;28;20043;-57
2022/03/08 07:11:46;;;;;;;145.98;63.83;;;0.80;99.90;;;;;;5057782;28;20028;-57
2022/03/08 07:14:15;;;;;;;130.70;55.80;;;0.80;99.90;;;;;;5075818;28;20027;-57
2022/03/08 07:16:42;;;;;;;127.85;56.88;;;0.80;99.90;;;;;;5075726;28;20370;-57
2022/03/08 07:19:08;;;;;;;137.23;60.55;;;0.80;99.90;;;;;;5076424;28;20112;-57
2022/03/08 07:21:34;;;;;;;128.57;58.22;;;0.90;99.90;;;;;;5075892;28;20028;-57
2022/03/08 07:24:00;;;;;;;122.22;54.63;;;0.90;99.90;;;;;;5074958;28;20393;-57
2022/03/08 07:26:26;;;;;;;128.23;57.13;;;1.10;99.90;;;;;;5074278;28;20071;-57
2022/03/08 07:28:52;;;;;;;112.00;53.67;;;1.00;99.90;;;;;;5071665;28;20131;-57
2022/03/08 07:31:18;;;;;;;106.53;51.80;;;1.10;99.90;;;;;;5056302;28;20060;-57
2022/03/08 07:33:44;;;;;;;113.30;55.28;;;1.10;99.90;;;;;;5070496;28;20016;-57
2022/03/08 07:36:10;;;;;;;107.20;55.47;;;1.20;99.90;;;;;;5067440;28;20087;-57
2022/03/08 07:38:37;;;;;;;105.20;50.60;;;1.20;99.90;;;;;;5056020;28;20036;-57
2022/03/08 07:41:04;;;;;;;93.50;48.28;;;1.20;99.90;;;;;;5055713;28;20039;-57
2022/03/08 07:43:30;;;;;;;91.20;46.10;;;1.20;99.90;;;;;;5055777;28;20024;-57
2022/03/08 07:45:56;;;;;;;70.35;38.20;;;1.40;99.90;;;;;;5062081;28;20037;-57
2022/03/08 07:48:22;;;;;;;78.78;41.42;;;1.40;99.90;;;;;;5054943;28;20033;-57
2022/03/08 07:50:48;;;;;;;70.20;37.63;;;1.40;99.90;;;;;;5055099;28;20032;-57
2022/03/08 07:53:14;;;;;;;103.22;50.63;;;1.40;99.90;;;;;;5055071;28;20478;-57
2022/03/08 07:55:40;;;;;;;140.68;64.95;;;1.60;99.90;;;;;;5060799;28;20028;-57
2022/03/08 07:58:11;;;;;;;86.53;45.67;;;1.60;99.90;;;;;;5056059;28;20111;-57
2022/03/08 08:00:38;;;;;;;95.35;45.53;;;1.70;99.90;;;;;;5054730;28;20025;-57
2022/03/08 08:03:04;;;;;;;95.70;47.25;;;1.60;99.90;;;;;;5054681;28;20471;-57
2022/03/08 08:05:33;;;;;;;106.97;51.25;;;1.60;99.90;;;;;;5054938;28;20089;-57
2022/03/08 08:08:00;;;;;;;133.10;60.05;;;1.50;99.90;;;;;;5054602;28;20021;-57
2022/03/08 08:10:26;;;;;;;111.68;52.67;;;1.30;99.90;;;;;;5061565;28;20043;-57
2022/03/08 08:12:52;;;;;;;101.95;51.03;;;1.60;99.90;;;;;;5058134;28;20359;-57
2022/03/08 08:15:18;;;;;;;118.47;53.95;;;1.70;99.90;;;;;;5053917;28;20060;-58
2022/03/08 08:17:44;;;;;;;98.93;48.50;;;1.70;99.90;;;;;;5053862;28;20268;-57
2022/03/08 08:20:10;;;;;;;93.38;46.22;;;1.80;99.90;;;;;;5063768;28;20450;-58
2022/03/08 08:22:38;;;;;;;94.50;45.50;;;1.90;99.90;;;;;;5064202;28;20040;-57
2022/03/08 08:25:06;;;;;;;80.50;43.33;;;1.90;99.90;;;;;;5055417;28;20036;-57
2022/03/08 08:27:32;;;;;;;83.00;42.20;;;1.90;99.90;;;;;;5063939;28;20086;-57
2022/03/08 08:29:58;;;;;;;89.55;46.20;;;2.00;99.90;;;;;;5066552;28;20083;-57
2022/03/08 08:32:24;;;;;;;87.72;45.05;;;2.30;99.90;;;;;;5074440;28;20060;-57
2022/03/08 08:34:50;;;;;;;86.53;45.22;;;2.40;99.90;;;;;;5073107;28;20055;-58
2022/03/08 08:37:16;;;;;;;102.97;46.72;;;2.40;99.90;;;;;;5073917;28;20040;-58
2022/03/08 08:39:42;;;;;;;82.22;43.83;;;2.60;99.90;;;;;;5073887;28;20055;-58
2022/03/08 08:42:09;;;;;;;90.57;45.60;;;2.80;99.90;;;;;;5073534;28;20036;-58
2022/03/08 08:44:35;;;;;;;96.45;46.72;;;2.70;99.90;;;;;;5074320;28;20032;-58
2022/03/08 08:47:01;;;;;;;91.13;44.80;;;2.90;99.90;;;;;;5073344;28;20060;-58
2022/03/08 08:49:28;;;;;;;91.80;43.80;;;3.00;99.90;;;;;;5074342;28;20063;-58
2022/03/08 08:51:55;;;;;;;89.95;42.92;;;3.10;99.90;;;;;;5073759;28;20035;-58
2022/03/08 08:54:22;;;;;;;99.57;43.75;;;3.40;99.90;;;;;;5060599;28;20458;-58
2022/03/08 08:56:49;;;;;;;84.28;43.97;;;3.60;99.90;;;;;;5064876;28;20028;-58
2022/03/08 08:59:15;;;;;;;92.10;46.88;;;3.50;99.90;;;;;;5069084;28;20055;-58
2022/03/08 09:01:41;;;;;;;113.55;48.83;;;3.40;99.90;;;;;;5055035;28;20117;-58
2022/03/08 09:04:07;;;;;;;95.68;45.63;;;3.60;99.90;;;;;;5072712;28;20043;-58
2022/03/08 09:06:33;;;;;;;98.55;49.10;;;3.70;99.90;;;;;;5073957;28;20024;-58
2022/03/08 09:08:59;;;;;;;86.47;44.13;;;4.00;99.90;;;;;;5073963;28;20040;-60
2022/03/08 09:11:25;;;;;;;92.82;45.28;;;4.30;99.90;;;;;;5068149;28;20028;-59
2022/03/08 09:13:52;;;;;;;98.82;47.90;;;4.70;99.90;;;;;;5066726;28;20017;-59
2022/03/08 09:16:21;;;;;;;105.18;49.35;;;4.40;99.90;;;;;;5054121;28;20518;-58
2022/03/08 09:18:48;;;;;;;89.40;44.67;;;4.30;99.90;;;;;;5059849;28;20040;-59
2022/03/08 09:21:17;;;;;;;90.82;44.35;;;4.30;99.90;;;;;;5070676;28;20041;-59
2022/03/08 09:23:43;;;;;;;89.03;45.30;;;4.40;99.90;;;;;;5057145;28;20489;-59
2022/03/08 09:26:09;;;;;;;113.43;46.10;;;4.40;99.90;;;;;;5072990;28;20446;-59
2022/03/08 09:28:36;;;;;;;94.32;46.00;;;4.50;99.90;;;;;;5054000;28;20538;-60
2022/03/08 09:31:02;;;;;;;85.38;45.83;;;4.70;99.90;;;;;;5073347;28;20039;-57
2022/03/08 09:33:28;;;;;;;116.22;51.00;;;4.80;99.90;;;;;;5071516;28;20032;-59
2022/03/08 09:35:54;;;;;;;106.00;51.33;;;4.90;99.90;;;;;;5073273;28;20494;-59
2022/03/08 09:38:21;;;;;;;106.03;47.60;;;4.90;99.90;;;;;;5073831;28;20074;-59
2022/03/08 09:40:47;;;;;;;92.38;48.17;;;4.90;99.90;;;;;;5073514;28;20028;-59
2022/03/08 09:43:17;;;;;;;93.65;54.55;;;5.30;99.90;;;;;;5074524;28;20052;-58
2022/03/08 09:45:43;;;;;;;95.28;48.65;;;6.00;99.90;;;;;;5074245;28;20042;-59
2022/03/08 09:48:09;;;;;;;94.65;47.28;;;6.70;98.20;;;;;;5073875;28;20021;-59
2022/03/08 09:50:36;;;;;;;90.25;46.97;;;6.60;97.10;;;;;;5073008;28;20505;-59
2022/03/08 09:53:04;;;;;;;79.88;42.22;;;6.60;96.00;;;;;;5071721;28;20070;-59
2022/03/08 09:55:30;;;;;;;91.20;47.50;;;7.60;96.40;;;;;;5072198;28;20033;-59
2022/03/08 09:57:56;;;;;;;87.45;44.30;;;8.00;95.10;;;;;;5072920;28;20565;-60
2022/03/08 10:00:24;;;;;;;78.43;44.90;;;8.20;95.10;;;;;;5071887;28;20482;-60
2022/03/08 10:02:58;;;;;;;85.75;47.85;;;8.80;92.60;;;;;;5070537;28;20119;-60
2022/03/08 10:05:26;;;;;;;92.97;49.33;;;8.60;91.60;;;;;;5071664;28;20028;-60
2022/03/08 10:08:19;;;;;;;101.25;49.08;;;8.40;93.40;;;;;;5072577;28;20048;-59
2022/03/08 10:10:50;;;;;;;85.10;43.20;;;8.50;95.60;;;;;;5075639;28;20096;-60
2022/03/08 10:13:18;;;;;;;73.30;42.75;;;9.10;93.70;;;;;;5075463;28;20254;-61
2022/03/08 10:15:44;;;;;;;93.07;43.95;;;8.80;86.70;;;;;;5076656;28;20111;-60
2022/03/08 10:18:11;;;;;;;75.15;45.55;;;8.40;94.10;;;;;;5075719;28;20032;-60
2022/03/08 10:20:37;;;;;;;72.85;41.63;;;9.00;93.40;;;;;;5075826;28;20036;-60
2022/03/08 10:23:12;;;;;;;77.63;44.03;;;8.40;91.80;;;;;;5076063;28;20067;-59
2022/03/08 10:25:38;;;;;;;72.85;41.50;;;8.60;95.80;;;;;;5075958;28;20043;-60
2022/03/08 10:28:06;;;;;;;71.35;41.90;;;9.10;93.00;;;;;;5057587;28;20052;-60
2022/03/08 10:30:49;;;;;;;68.63;41.10;;;9.30;90.60;;;;;;5075172;28;20041;-60
2022/03/08 10:33:19;;;;;;;76.00;43.50;;;8.80;88.90;;;;;;5075394;28;20028;-60
2022/03/08 10:35:48;;;;;;;81.30;45.15;;;8.20;90.30;;;;;;5075661;28;20107;-61
2022/03/08 10:38:14;;;;;;;73.10;41.38;;;8.10;94.20;;;;;;5058115;28;20027;-60
2022/03/08 10:40:42;;;;;;;93.57;43.33;;;8.50;91.60;;;;;;5075290;28;20036;-60
2022/03/08 10:43:14;;;;;;;65.78;38.38;;;8.40;95.00;;;;;;5072733;28;20425;-59
2022/03/08 10:45:44;;;;;;;64.53;35.35;;;8.50;92.20;;;;;;5074868;28;20576;-59
2022/03/08 10:48:13;;;;;;;55.33;31.75;;;8.10;90.70;;;;;;5073425;28;20020;-61
2022/03/08 10:50:41;;;;;;;57.10;34.67;;;7.80;86.20;;;;;;5075770;28;20063;-61
2022/03/08 10:53:08;;;;;;;55.85;32.72;;;7.70;93.90;;;;;;5055386;28;20025;-60
2022/03/08 10:55:47;;;;;;;63.63;32.83;;;7.50;91.20;;;;;;5074162;28;20656;-58
2022/03/08 10:58:14;;;;;;;57.53;33.58;;;7.20;92.90;;;;;;5075878;28;20035;-58
2022/03/08 11:00:45;;;;;;;66.28;35.55;;;7.10;94.40;;;;;;5094400;28;20473;-58
2022/03/08 11:03:12;;;;;;;;;;;6.60;93.20;;;;;;5097264;28;20131;-58
2022/03/08 11:05:49;;;;;;;49.97;28.63;;;6.60;95.00;;;;;;5096972;28;20273;-58
2022/03/08 11:08:19;;;;;;;55.50;28.80;;;6.50;93.00;;;;;;5094440;28;20396;-58
2022/03/08 11:10:46;;;;;;;61.65;30.88;;;6.60;91.80;;;;;;5076260;28;20478;-58
2022/03/08 11:13:13;;;;;;;45.95;28.02;;;6.70;94.10;;;;;;5076811;28;20112;-58
2022/03/08 11:15:43;;;;;;;55.55;29.27;;;7.30;92.10;;;;;;5076054;28;20025;-58
2022/03/08 11:18:10;;;;;;;60.45;29.77;;;7.90;85.80;;;;;;5094218;28;20024;-58
2022/03/08 11:20:38;;;;;;;57.33;29.08;;;8.30;86.60;;;;;;5095279;28;20095;-58
2022/03/08 11:23:05;;;;;;;51.17;26.95;;;8.70;90.20;;;;;;5095924;28;20114;-59
2022/03/08 11:25:34;;;;;;;52.80;29.52;;;9.50;67.70;;;;;;5095750;28;20032;-58
2022/03/08 11:28:02;;;;;;;46.63;28.80;;;9.50;76.60;;;;;;5095179;28;20020;-58
2022/03/08 11:30:34;;;;;;;42.88;28.00;;;10.10;66.00;;;;;;5094961;28;20051;-58
2022/03/08 11:33:23;;;;;;;41.83;27.30;;;10.70;57.40;;;;;;5095526;28;20020;-58
2022/03/08 11:36:06;;;;;;;44.80;28.80;;;10.50;54.70;;;;;;5095653;28;20024;-58
2022/03/08 11:38:32;;;;;;;61.00;32.45;;;9.80;61.50;;;;;;5095812;28;20366;-58
2022/03/08 11:40:58;;;;;;;49.17;28.52;;;9.50;74.20;;;;;;5095510;28;20103;-58
2022/03/08 11:43:41;;;;;;;49.30;27.95;;;8.90;78.70;;;;;;5075026;28;20078;-58
2022/03/08 11:46:21;;;;;;;42.22;26.35;;;9.30;67.90;;;;;;5073314;28;20048;-58
2022/03/08 11:48:56;;;;;;;45.55;28.65;;;9.10;68.70;;;;;;5074702;28;20013;-59
2022/03/08 11:51:27;;;;;;;40.00;24.90;;;9.10;72.80;;;;;;5075215;28;20028;-58
2022/03/08 11:54:24;;;;;;;47.88;26.95;;;9.10;61.20;;;;;;5074321;28;20032;-58
2022/03/08 11:56:54;;;;;;;45.85;26.23;;;8.40;73.60;;;;;;5074288;28;20032;-59
2022/03/08 11:59:20;;;;;;;50.57;26.23;;;8.50;78.00;;;;;;5074567;28;20024;-58
2022/03/08 12:01:48;;;;;;;34.90;20.80;;;8.20;72.90;;;;;;5073699;28;20838;-58
2022/03/08 12:04:21;;;;;;;48.97;24.92;;;8.20;78.50;;;;;;5081465;28;20024;-59
2022/03/08 12:06:58;;;;;;;34.35;18.88;;;7.90;82.10;;;;;;5084907;28;20016;-58
2022/03/08 12:09:25;;;;;;;93.88;47.08;;;7.70;90.30;;;;;;5072476;28;20426;-59
2022/03/08 12:11:58;;;;;;;39.20;20.20;;;7.80;74.20;;;;;;5074880;28;20462;-59
2022/03/08 12:14:26;;;;;;;40.42;19.27;;;7.70;78.00;;;;;;5075475;28;20025;-59
2022/03/08 12:17:09;;;;;;;32.83;17.45;;;7.80;79.80;;;;;;5075413;28;20108;-59
2022/03/08 12:19:41;;;;;;;27.88;18.05;;;7.70;86.50;;;;;;5059603;28;20024;-59
2022/03/08 12:22:12;;;;;;;26.20;17.15;;;7.30;83.00;;;;;;5055488;28;20064;-58
2022/03/08 12:24:41;;;;;;;37.78;17.90;;;7.40;88.90;;;;;;5055319;28;20423;-58
2022/03/08 12:27:09;;;;;;;30.17;17.35;;;7.50;84.20;;;;;;5055470;28;20076;-58
2022/03/08 12:29:54;;;;;;;35.33;18.05;;;7.50;85.80;;;;;;5037282;28;20072;-58
2022/03/08 12:32:32;;;;;;;35.67;18.00;;;7.40;80.40;;;;;;5055289;28;20029;-58